createdAt,value
2023-02-05T00:00:31.136Z,4.50
2023-02-05T00:01:00.865Z,5.10
2023-02-05T00:01:31.790Z,4.60
2023-02-05T00:02:02.818Z,4.80
2023-02-05T00:02:33.325Z,4.80
2023-02-05T00:03:03.795Z,4.90
2023-02-05T00:03:34.575Z,4.90
2023-02-05T00:04:05.411Z,4.60
2023-02-05T00:04:34.972Z,5.30
2023-02-05T00:05:06.809Z,5.40
2023-02-05T00:05:37.714Z,5.30
2023-02-05T00:06:08.637Z,5.10
2023-02-05T00:06:39.558Z,5.00
2023-02-05T00:07:10.479Z,5.40
2023-02-05T00:07:40.079Z,5.20
2023-02-05T00:08:12.031Z,5.60
2023-02-05T00:08:41.549Z,5.70
2023-02-05T00:09:13.524Z,5.20
2023-02-05T00:09:43.136Z,4.80
2023-02-05T00:10:13.650Z,5.20
2023-02-05T00:10:45.588Z,5.20
2023-02-05T00:11:16.480Z,5.30
2023-02-05T00:11:47.286Z,6.20
2023-02-05T00:12:18.180Z,5.60
2023-02-05T00:12:47.742Z,5.30
2023-02-05T00:13:19.681Z,5.30
2023-02-05T00:13:50.589Z,5.70
2023-02-05T00:14:20.113Z,5.50
2023-02-05T00:14:52.040Z,5.20
2023-02-05T00:15:22.967Z,4.90
2023-02-05T00:15:53.867Z,5.60
2023-02-05T00:16:24.930Z,5.50
2023-02-05T00:16:55.358Z,5.20
2023-02-05T00:17:26.308Z,5.30
2023-02-05T00:17:57.228Z,5.00
2023-02-05T00:18:26.733Z,5.50
2023-02-05T00:18:58.652Z,5.00
2023-02-05T00:19:28.171Z,5.10
2023-02-05T00:20:00.161Z,5.00
2023-02-05T00:20:31.087Z,5.10
2023-02-05T00:21:00.641Z,5.20
2023-02-05T00:21:32.571Z,5.30
2023-02-05T00:22:03.519Z,5.00
2023-02-05T00:22:34.413Z,5.00
2023-02-05T00:23:05.352Z,4.80
2023-02-05T00:23:36.250Z,5.20
2023-02-05T00:24:07.178Z,4.90
2023-02-05T00:24:36.779Z,4.50
2023-02-05T00:25:07.768Z,4.30
2023-02-05T00:25:42.857Z,4.40
2023-02-05T00:26:10.514Z,4.50
2023-02-05T00:26:41.412Z,4.70
2023-02-05T00:27:12.225Z,5.00
2023-02-05T00:27:43.194Z,4.70
2023-02-05T00:28:14.137Z,4.50
2023-02-05T00:28:43.741Z,4.60
2023-02-05T00:29:15.642Z,5.10
2023-02-05T00:29:46.554Z,4.70
2023-02-05T00:30:17.358Z,4.40
2023-02-05T00:30:48.406Z,4.80
2023-02-05T00:31:19.271Z,4.90
2023-02-05T00:31:49.829Z,4.40
2023-02-05T00:32:20.234Z,4.50
2023-02-05T00:32:51.142Z,4.50
2023-02-05T00:33:22.043Z,4.80
2023-02-05T00:33:52.980Z,5.20
2023-02-05T00:34:23.869Z,4.30
2023-02-05T00:34:54.797Z,4.60
2023-02-05T00:35:25.612Z,5.00
2023-02-05T00:35:56.536Z,4.90
2023-02-05T00:36:27.452Z,4.60
2023-02-05T00:36:58.402Z,4.50
2023-02-05T00:37:29.326Z,4.50
2023-02-05T00:37:58.961Z,4.80
2023-02-05T00:38:30.787Z,4.90
2023-02-05T00:39:01.593Z,4.80
2023-02-05T00:39:31.114Z,4.20
2023-02-05T00:40:03.025Z,4.50
2023-02-05T00:40:33.026Z,4.30
2023-02-05T00:41:04.919Z,3.90
2023-02-05T00:41:35.854Z,4.40
2023-02-05T00:42:06.771Z,4.30
2023-02-05T00:42:37.672Z,4.10
2023-02-05T00:43:08.612Z,4.30
2023-02-05T00:43:39.528Z,4.20
2023-02-05T00:44:10.467Z,4.10
2023-02-05T00:44:41.354Z,3.80
2023-02-05T00:45:12.277Z,4.20
2023-02-05T00:45:43.172Z,4.00
2023-02-05T00:46:14.198Z,3.40
2023-02-05T00:46:43.839Z,3.80
2023-02-05T00:47:15.786Z,3.20
2023-02-05T00:47:46.739Z,3.90
2023-02-05T00:48:17.684Z,3.70
2023-02-05T00:48:47.223Z,3.40
2023-02-05T00:49:19.142Z,4.10
2023-02-05T00:49:50.082Z,4.20
2023-02-05T00:50:21.016Z,4.40
2023-02-05T00:50:51.940Z,3.90
2023-02-05T00:51:22.850Z,4.60
2023-02-05T00:51:53.763Z,5.00
2023-02-05T00:52:24.735Z,4.90
2023-02-05T00:52:55.632Z,5.30
2023-02-05T00:53:26.557Z,4.90
2023-02-05T00:53:57.476Z,4.50
2023-02-05T00:54:27.078Z,4.50
2023-02-05T00:55:01.988Z,4.30
2023-02-05T00:55:29.544Z,4.50
2023-02-05T00:56:00.457Z,4.60
2023-02-05T00:56:30.950Z,5.10
2023-02-05T00:57:01.464Z,4.50
2023-02-05T00:57:30.986Z,4.90
2023-02-05T00:58:02.899Z,5.00
2023-02-05T00:58:33.697Z,4.80
2023-02-05T00:59:03.293Z,4.90
2023-02-05T00:59:35.270Z,4.60
2023-02-05T01:00:06.174Z,5.00
2023-02-05T01:00:37.087Z,4.80
2023-02-05T01:01:07.911Z,4.80
2023-02-05T01:01:38.970Z,4.80
2023-02-05T01:02:09.419Z,4.70
2023-02-05T01:02:40.392Z,4.40
2023-02-05T01:03:11.395Z,5.10
2023-02-05T01:03:41.025Z,4.70
2023-02-05T01:04:11.542Z,5.00
2023-02-05T01:04:43.487Z,4.40
2023-02-05T01:05:14.420Z,4.90
2023-02-05T01:05:44.028Z,4.80
2023-02-05T01:06:14.644Z,4.70
2023-02-05T01:06:47.837Z,4.60
2023-02-05T01:07:17.371Z,4.30
2023-02-05T01:07:48.274Z,4.00
2023-02-05T01:08:19.195Z,4.30
2023-02-05T01:08:50.004Z,4.30
2023-02-05T01:09:20.921Z,4.50
2023-02-05T01:09:51.800Z,4.40
2023-02-05T01:10:22.722Z,4.40
2023-02-05T01:10:53.529Z,4.40
2023-02-05T01:11:24.422Z,4.70
2023-02-05T01:11:55.369Z,4.70
2023-02-05T01:12:26.166Z,4.30
2023-02-05T01:12:57.092Z,4.60
2023-02-05T01:13:28.045Z,4.80
2023-02-05T01:13:58.949Z,4.30
2023-02-05T01:14:28.456Z,4.90
2023-02-05T01:15:00.413Z,4.50
2023-02-05T01:15:31.628Z,4.80
2023-02-05T01:16:00.912Z,4.70
2023-02-05T01:16:32.811Z,4.70
2023-02-05T01:17:03.744Z,4.80
2023-02-05T01:17:34.665Z,4.80
2023-02-05T01:18:05.592Z,4.50
2023-02-05T01:18:36.508Z,4.80
2023-02-05T01:19:07.438Z,4.90
2023-02-05T01:19:38.250Z,4.60
2023-02-05T01:20:09.165Z,3.90
2023-02-05T01:20:40.081Z,4.30
2023-02-05T01:21:10.889Z,4.60
2023-02-05T01:21:41.809Z,4.20
2023-02-05T01:22:12.691Z,4.90
2023-02-05T01:22:43.503Z,5.10
2023-02-05T01:23:13.007Z,4.50
2023-02-05T01:23:44.963Z,4.60
2023-02-05T01:24:15.892Z,4.80
2023-02-05T01:24:45.397Z,4.80
2023-02-05T01:25:48.193Z,5.00
2023-02-05T01:26:17.795Z,4.90
2023-02-05T01:26:49.706Z,5.20
2023-02-05T01:27:20.814Z,5.20
2023-02-05T01:27:51.242Z,5.50
2023-02-05T01:28:22.006Z,5.60
2023-02-05T01:28:51.581Z,5.80
2023-02-05T01:29:23.504Z,5.50
2023-02-05T01:29:54.436Z,5.70
2023-02-05T01:30:25.377Z,5.50
2023-02-05T01:30:54.970Z,5.60
2023-02-05T01:31:26.557Z,5.20
2023-02-05T01:31:57.168Z,5.70
2023-02-05T01:32:28.095Z,5.70
2023-02-05T01:32:59.002Z,5.20
2023-02-05T01:33:29.805Z,5.50
2023-02-05T01:34:00.769Z,5.50
2023-02-05T01:34:31.682Z,5.80
2023-02-05T01:35:02.608Z,5.20
2023-02-05T01:35:33.821Z,5.80
2023-02-05T01:36:03.370Z,5.50
2023-02-05T01:36:35.986Z,5.10
2023-02-05T01:37:05.892Z,4.50
2023-02-05T01:37:35.418Z,4.50
2023-02-05T01:38:38.185Z,4.50
2023-02-05T01:39:09.066Z,4.80
2023-02-05T01:39:38.574Z,5.10
2023-02-05T01:40:09.106Z,4.70
2023-02-05T01:40:41.001Z,5.10
2023-02-05T01:41:11.811Z,4.40
2023-02-05T01:41:42.751Z,4.50
2023-02-05T01:42:13.653Z,4.90
2023-02-05T01:42:44.555Z,4.50
2023-02-05T01:43:15.356Z,4.80
2023-02-05T01:43:46.287Z,4.60
2023-02-05T01:44:17.219Z,4.10
2023-02-05T01:44:48.018Z,4.50
2023-02-05T01:45:17.617Z,4.20
2023-02-05T01:45:49.543Z,4.40
2023-02-05T01:46:21.863Z,4.70
2023-02-05T01:46:51.281Z,4.70
2023-02-05T01:47:22.079Z,5.00
2023-02-05T01:47:53.007Z,4.50
2023-02-05T01:48:23.914Z,4.80
2023-02-05T01:48:54.841Z,4.50
2023-02-05T01:49:25.647Z,4.30
2023-02-05T01:49:56.544Z,4.70
2023-02-05T01:50:28.550Z,4.80
2023-02-05T01:51:29.021Z,4.40
2023-02-05T01:51:59.941Z,4.30
2023-02-05T01:52:30.745Z,4.40
2023-02-05T01:53:01.651Z,4.40
2023-02-05T01:53:32.462Z,4.60
2023-02-05T01:54:02.069Z,4.70
2023-02-05T01:54:34.003Z,4.80
2023-02-05T01:55:06.013Z,4.90
2023-02-05T01:55:34.933Z,4.50
2023-02-05T01:56:06.487Z,4.50
2023-02-05T01:56:37.394Z,5.00
2023-02-05T01:57:08.361Z,4.40
2023-02-05T01:57:39.241Z,4.30
2023-02-05T01:58:10.178Z,4.30
2023-02-05T01:58:39.797Z,5.00
2023-02-05T01:59:11.685Z,4.70
2023-02-05T01:59:42.599Z,4.40
2023-02-05T02:00:12.225Z,4.50
2023-02-05T02:00:42.847Z,5.90
2023-02-05T02:01:14.801Z,4.50
2023-02-05T02:01:49.219Z,4.50
2023-02-05T02:02:16.506Z,4.70
2023-02-05T02:02:47.457Z,5.00
2023-02-05T02:03:18.355Z,4.70
2023-02-05T02:03:49.283Z,5.20
2023-02-05T02:04:20.194Z,4.70
2023-02-05T02:04:51.051Z,4.90
2023-02-05T02:05:20.653Z,4.40
2023-02-05T02:05:52.591Z,5.40
2023-02-05T02:06:23.518Z,5.00
2023-02-05T02:06:54.444Z,5.10
2023-02-05T02:07:24.461Z,5.80
2023-02-05T02:07:56.372Z,5.10
2023-02-05T02:08:58.230Z,5.00
2023-02-05T02:09:29.161Z,5.00
2023-02-05T02:10:00.079Z,5.00
2023-02-05T02:10:30.866Z,4.70
2023-02-05T02:11:01.774Z,5.30
2023-02-05T02:11:32.696Z,5.40
2023-02-05T02:12:02.218Z,5.00
2023-02-05T02:12:34.134Z,5.50
2023-02-05T02:13:03.663Z,5.30
2023-02-05T02:13:35.581Z,5.10
2023-02-05T02:14:06.470Z,4.70
2023-02-05T02:14:37.391Z,5.10
2023-02-05T02:15:08.314Z,5.10
2023-02-05T02:15:39.251Z,5.20
2023-02-05T02:16:10.092Z,5.20
2023-02-05T02:16:40.544Z,5.20
2023-02-05T02:17:10.157Z,5.00
2023-02-05T02:17:42.088Z,5.00
2023-02-05T02:18:13.018Z,5.00
2023-02-05T02:18:43.957Z,5.10
2023-02-05T02:19:14.873Z,4.70
2023-02-05T02:19:45.831Z,5.00
2023-02-05T02:20:16.736Z,5.00
2023-02-05T02:20:47.652Z,4.80
2023-02-05T02:21:18.538Z,4.80
2023-02-05T02:21:49.427Z,5.60
2023-02-05T02:22:20.237Z,5.00
2023-02-05T02:22:51.166Z,5.30
2023-02-05T02:23:22.100Z,5.30
2023-02-05T02:23:53.006Z,5.10
2023-02-05T02:24:23.957Z,5.30
2023-02-05T02:24:54.876Z,4.90
2023-02-05T02:25:25.781Z,5.30
2023-02-05T02:25:58.805Z,5.40
2023-02-05T02:26:27.494Z,5.00
2023-02-05T02:26:58.394Z,5.40
2023-02-05T02:27:29.323Z,5.10
2023-02-05T02:28:00.355Z,5.20
2023-02-05T02:28:30.789Z,4.90
2023-02-05T02:29:01.572Z,4.80
2023-02-05T02:29:32.388Z,5.10
2023-02-05T02:30:03.339Z,5.10
2023-02-05T02:30:34.315Z,5.10
2023-02-05T02:31:05.357Z,5.00
2023-02-05T02:31:34.974Z,5.00
2023-02-05T02:32:06.404Z,5.30
2023-02-05T02:32:37.303Z,5.00
2023-02-05T02:33:08.213Z,4.90
2023-02-05T02:33:39.134Z,4.90
2023-02-05T02:34:10.076Z,5.40
2023-02-05T02:34:41.019Z,5.20
2023-02-05T02:35:11.940Z,4.60
2023-02-05T02:35:42.869Z,5.10
2023-02-05T02:36:13.796Z,5.00
2023-02-05T02:36:44.706Z,4.80
2023-02-05T02:37:15.628Z,5.00
2023-02-05T02:37:46.542Z,5.10
2023-02-05T02:38:17.478Z,4.60
2023-02-05T02:38:48.390Z,4.70
2023-02-05T02:39:19.197Z,5.00
2023-02-05T02:39:50.159Z,5.10
2023-02-05T02:40:21.098Z,5.00
2023-02-05T02:40:52.029Z,4.90
2023-02-05T02:41:22.919Z,4.90
2023-02-05T02:41:53.805Z,4.70
2023-02-05T02:42:24.715Z,4.60
2023-02-05T02:42:54.220Z,5.00
2023-02-05T02:43:26.029Z,5.30
2023-02-05T02:43:57.000Z,4.90
2023-02-05T02:44:27.902Z,4.70
2023-02-05T02:44:58.820Z,5.10
2023-02-05T02:45:28.669Z,5.00
2023-02-05T02:46:00.600Z,5.10
2023-02-05T02:46:31.532Z,4.90
2023-02-05T02:47:02.003Z,4.70
2023-02-05T02:47:32.942Z,5.30
2023-02-05T02:48:03.836Z,5.20
2023-02-05T02:48:34.767Z,5.20
2023-02-05T02:49:05.683Z,4.70
2023-02-05T02:49:36.609Z,5.60
2023-02-05T02:50:07.527Z,5.60
2023-02-05T02:50:39.226Z,5.30
2023-02-05T02:51:08.959Z,4.50
2023-02-05T02:51:39.888Z,5.20
2023-02-05T02:52:10.795Z,5.40
2023-02-05T02:52:41.732Z,4.50
2023-02-05T02:53:12.656Z,5.60
2023-02-05T02:53:43.582Z,5.10
2023-02-05T02:54:14.538Z,4.80
2023-02-05T02:54:45.313Z,5.30
2023-02-05T02:55:16.256Z,5.20
2023-02-05T02:55:48.185Z,5.40
2023-02-05T02:56:17.981Z,5.10
2023-02-05T02:57:19.450Z,4.60
2023-02-05T02:57:49.105Z,5.60
2023-02-05T02:58:21.026Z,5.40
2023-02-05T02:58:51.947Z,5.80
2023-02-05T02:59:22.884Z,5.80
2023-02-05T02:59:53.774Z,5.00
2023-02-05T03:00:24.682Z,5.50
2023-02-05T03:00:55.636Z,5.00
2023-02-05T03:01:57.481Z,5.70
2023-02-05T03:02:28.409Z,5.00
2023-02-05T03:02:59.357Z,5.60
2023-02-05T03:03:32.542Z,5.70
2023-02-05T03:04:00.846Z,5.30
2023-02-05T03:04:31.756Z,5.60
2023-02-05T03:05:02.645Z,5.80
2023-02-05T03:05:33.964Z,5.10
2023-02-05T03:06:04.206Z,5.70
2023-02-05T03:06:33.806Z,5.50
2023-02-05T03:07:05.569Z,5.60
2023-02-05T03:07:36.322Z,5.50
2023-02-05T03:08:07.210Z,5.70
2023-02-05T03:08:38.100Z,5.30
2023-02-05T03:09:09.019Z,5.80
2023-02-05T03:09:38.552Z,5.20
2023-02-05T03:10:10.458Z,5.40
2023-02-05T03:10:41.392Z,5.30
2023-02-05T03:11:12.309Z,6.00
2023-02-05T03:11:43.232Z,6.50
2023-02-05T03:12:12.750Z,5.70
2023-02-05T03:12:45.668Z,4.90
2023-02-05T03:13:18.723Z,5.70
2023-02-05T03:13:45.309Z,5.70
2023-02-05T03:14:17.239Z,5.50
2023-02-05T03:14:48.039Z,5.40
2023-02-05T03:15:18.937Z,5.90
2023-02-05T03:15:48.572Z,6.50
2023-02-05T03:16:20.550Z,6.90
2023-02-05T03:16:50.962Z,6.40
2023-02-05T03:17:21.880Z,5.30
2023-02-05T03:17:52.841Z,5.00
2023-02-05T03:18:23.813Z,5.50
2023-02-05T03:18:54.592Z,6.50
2023-02-05T03:19:25.531Z,6.50
2023-02-05T03:19:56.417Z,6.60
2023-02-05T03:20:27.336Z,6.10
2023-02-05T03:20:58.262Z,5.90
2023-02-05T03:21:29.190Z,5.80
2023-02-05T03:22:00.123Z,6.10
2023-02-05T03:22:31.033Z,6.00
2023-02-05T03:23:01.962Z,5.60
2023-02-05T03:23:31.502Z,5.80
2023-02-05T03:24:03.405Z,5.50
2023-02-05T03:24:34.316Z,5.40
2023-02-05T03:25:05.279Z,5.10
2023-02-05T03:25:36.183Z,4.60
2023-02-05T03:26:06.719Z,4.80
2023-02-05T03:26:37.645Z,5.00
2023-02-05T03:27:08.531Z,4.70
2023-02-05T03:27:39.508Z,4.60
2023-02-05T03:28:10.280Z,4.90
2023-02-05T03:28:41.180Z,5.20
2023-02-05T03:29:12.095Z,5.60
2023-02-05T03:29:43.007Z,5.10
2023-02-05T03:30:13.935Z,5.50
2023-02-05T03:30:44.867Z,5.70
2023-02-05T03:31:15.842Z,5.10
2023-02-05T03:31:45.531Z,4.60
2023-02-05T03:32:47.255Z,5.80
2023-02-05T03:33:19.158Z,5.00
2023-02-05T03:33:50.109Z,5.50
2023-02-05T03:34:21.003Z,4.80
2023-02-05T03:34:51.912Z,4.90
2023-02-05T03:35:22.848Z,4.50
2023-02-05T03:35:53.795Z,4.80
2023-02-05T03:36:24.743Z,5.00
2023-02-05T03:36:55.637Z,4.70
2023-02-05T03:37:25.239Z,5.00
2023-02-05T03:37:57.183Z,4.40
2023-02-05T03:38:28.104Z,4.80
2023-02-05T03:38:59.002Z,4.80
2023-02-05T03:39:29.992Z,4.50
2023-02-05T03:40:00.417Z,4.30
2023-02-05T03:40:31.353Z,5.00
2023-02-05T03:41:00.983Z,4.60
2023-02-05T03:41:31.575Z,4.60
2023-02-05T03:42:03.485Z,4.50
2023-02-05T03:42:34.380Z,4.20
2023-02-05T03:43:05.302Z,4.30
2023-02-05T03:43:36.112Z,5.00
2023-02-05T03:44:07.023Z,4.70
2023-02-05T03:44:37.930Z,4.60
2023-02-05T03:45:08.845Z,4.40
2023-02-05T03:45:39.765Z,4.70
2023-02-05T03:46:10.736Z,5.00
2023-02-05T03:46:41.638Z,4.40
2023-02-05T03:47:12.541Z,5.00
2023-02-05T03:47:43.467Z,4.50
2023-02-05T03:48:14.406Z,5.00
2023-02-05T03:48:45.211Z,4.70
2023-02-05T03:49:16.125Z,4.50
2023-02-05T03:49:47.059Z,4.80
2023-02-05T03:50:16.663Z,4.60
2023-02-05T03:50:48.617Z,4.90
2023-02-05T03:51:19.529Z,4.60
2023-02-05T03:51:50.446Z,4.60
2023-02-05T03:52:21.374Z,4.90
2023-02-05T03:52:52.286Z,4.60
2023-02-05T03:53:23.204Z,4.80
2023-02-05T03:53:54.143Z,4.90
2023-02-05T03:54:25.055Z,4.80
2023-02-05T03:54:55.881Z,4.90
2023-02-05T03:55:26.675Z,4.80
2023-02-05T03:55:57.484Z,4.50
2023-02-05T03:56:28.425Z,4.60
2023-02-05T03:56:59.237Z,4.70
2023-02-05T03:57:30.165Z,4.80
2023-02-05T03:58:01.065Z,4.50
2023-02-05T03:58:32.017Z,4.60
2023-02-05T03:59:02.946Z,4.60
2023-02-05T03:59:33.874Z,4.60
2023-02-05T04:00:04.795Z,4.80
2023-02-05T04:00:35.604Z,5.00
2023-02-05T04:01:06.606Z,4.60
2023-02-05T04:01:37.523Z,4.50
2023-02-05T04:02:08.447Z,4.90
2023-02-05T04:02:38.160Z,4.70
2023-02-05T04:03:08.701Z,4.60
2023-02-05T04:03:40.629Z,4.50
2023-02-05T04:04:11.560Z,4.60
2023-02-05T04:04:42.497Z,4.80
2023-02-05T04:05:13.387Z,5.10
2023-02-05T04:05:44.440Z,4.90
2023-02-05T04:06:14.831Z,4.80
2023-02-05T04:06:45.735Z,4.70
2023-02-05T04:07:16.668Z,4.50
2023-02-05T04:07:47.597Z,4.40
2023-02-05T04:08:18.509Z,4.60
2023-02-05T04:08:49.395Z,4.80
2023-02-05T04:09:21.295Z,5.10
2023-02-05T04:09:53.556Z,4.80
2023-02-05T04:10:21.919Z,4.70
2023-02-05T04:10:51.537Z,4.80
2023-02-05T04:11:23.476Z,5.10
2023-02-05T04:11:54.377Z,4.90
2023-02-05T04:12:25.307Z,4.10
2023-02-05T04:12:56.205Z,4.90
2023-02-05T04:13:27.006Z,5.40
2023-02-05T04:13:56.650Z,4.90
2023-02-05T04:14:28.576Z,4.40
2023-02-05T04:14:59.608Z,4.80
2023-02-05T04:15:30.525Z,4.80
2023-02-05T04:16:01.469Z,4.60
2023-02-05T04:16:32.700Z,4.60
2023-02-05T04:17:03.218Z,5.00
2023-02-05T04:17:34.115Z,4.80
2023-02-05T04:18:05.042Z,4.60
2023-02-05T04:18:35.962Z,4.80
2023-02-05T04:19:06.874Z,4.70
2023-02-05T04:19:37.831Z,4.60
2023-02-05T04:20:08.787Z,4.80
2023-02-05T04:20:39.680Z,5.00
2023-02-05T04:21:10.603Z,4.70
2023-02-05T04:21:41.532Z,4.90
2023-02-05T04:22:12.481Z,4.60
2023-02-05T04:22:43.388Z,5.10
2023-02-05T04:23:14.316Z,4.80
2023-02-05T04:23:45.241Z,4.80
2023-02-05T04:24:16.248Z,5.50
2023-02-05T04:24:46.712Z,5.00
2023-02-05T04:25:17.608Z,4.60
2023-02-05T04:25:48.452Z,5.20
2023-02-05T04:26:19.341Z,4.80
2023-02-05T04:26:48.960Z,5.40
2023-02-05T04:27:19.609Z,5.50
2023-02-05T04:27:51.564Z,4.80
2023-02-05T04:28:22.460Z,5.30
2023-02-05T04:28:53.402Z,5.00
2023-02-05T04:29:24.334Z,5.90
2023-02-05T04:29:55.234Z,5.20
2023-02-05T04:30:26.235Z,5.40
2023-02-05T04:30:56.789Z,5.40
2023-02-05T04:31:27.280Z,5.10
2023-02-05T04:31:58.231Z,4.90
2023-02-05T04:32:29.184Z,5.40
2023-02-05T04:33:00.107Z,5.00
2023-02-05T04:33:31.047Z,5.00
2023-02-05T04:34:01.989Z,5.20
2023-02-05T04:34:32.906Z,5.00
2023-02-05T04:35:03.819Z,5.30
2023-02-05T04:35:35.120Z,5.70
2023-02-05T04:36:05.626Z,4.60
2023-02-05T04:36:36.513Z,4.50
2023-02-05T04:37:07.410Z,4.80
2023-02-05T04:37:38.349Z,4.80
2023-02-05T04:38:09.286Z,5.10
2023-02-05T04:38:38.814Z,4.90
2023-02-05T04:39:10.717Z,5.00
2023-02-05T04:39:41.627Z,4.70
2023-02-05T04:40:12.534Z,4.30
2023-02-05T04:40:43.454Z,4.90
2023-02-05T04:41:14.339Z,4.30
2023-02-05T04:41:45.279Z,4.70
2023-02-05T04:42:16.220Z,4.90
2023-02-05T04:42:47.126Z,4.80
2023-02-05T04:43:18.058Z,4.90
2023-02-05T04:43:48.988Z,4.40
2023-02-05T04:44:19.910Z,4.90
2023-02-05T04:44:50.815Z,4.70
2023-02-05T04:45:21.737Z,4.50
2023-02-05T04:45:52.692Z,4.60
2023-02-05T04:46:23.480Z,4.90
2023-02-05T04:46:54.288Z,5.20
2023-02-05T04:47:25.245Z,5.10
2023-02-05T04:47:56.140Z,4.90
2023-02-05T04:48:27.073Z,4.40
2023-02-05T04:48:58.004Z,4.60
2023-02-05T04:49:28.913Z,4.50
2023-02-05T04:49:59.804Z,5.20
2023-02-05T04:50:30.612Z,5.20
2023-02-05T04:51:01.572Z,4.90
2023-02-05T04:51:32.480Z,5.00
2023-02-05T04:52:03.394Z,5.70
2023-02-05T04:52:34.332Z,5.20
2023-02-05T04:53:05.284Z,5.10
2023-02-05T04:53:36.242Z,5.60
2023-02-05T04:54:07.161Z,5.40
2023-02-05T04:54:38.050Z,4.90
2023-02-05T04:55:08.951Z,5.00
2023-02-05T04:55:39.765Z,4.80
2023-02-05T04:56:10.681Z,5.30
2023-02-05T04:56:41.614Z,5.30
2023-02-05T04:57:12.579Z,4.90
2023-02-05T04:57:43.471Z,5.20
2023-02-05T04:58:14.406Z,5.50
2023-02-05T04:58:44.010Z,6.10
2023-02-05T04:59:15.927Z,5.30
2023-02-05T04:59:46.832Z,4.90
2023-02-05T05:00:48.772Z,5.00
2023-02-05T05:01:19.753Z,5.40
2023-02-05T05:01:50.191Z,5.30
2023-02-05T05:02:19.979Z,5.20
2023-02-05T05:02:51.406Z,5.40
2023-02-05T05:03:22.343Z,5.70
2023-02-05T05:03:53.276Z,5.20
2023-02-05T05:04:24.222Z,5.30
2023-02-05T05:04:55.142Z,5.80
2023-02-05T05:05:26.082Z,5.30
2023-02-05T05:05:57.040Z,5.70
2023-02-05T05:06:28.020Z,5.30
2023-02-05T05:06:58.917Z,5.50
2023-02-05T05:07:29.815Z,5.90
2023-02-05T05:08:00.745Z,5.30
2023-02-05T05:08:31.672Z,5.80
2023-02-05T05:09:02.470Z,5.40
2023-02-05T05:09:33.382Z,5.40
2023-02-05T05:10:04.273Z,5.60
2023-02-05T05:10:35.195Z,5.10
2023-02-05T05:11:06.120Z,5.60
2023-02-05T05:11:37.057Z,5.60
2023-02-05T05:12:08.015Z,5.20
2023-02-05T05:12:38.902Z,5.50
2023-02-05T05:13:09.819Z,5.30
2023-02-05T05:13:40.741Z,5.40
2023-02-05T05:14:11.692Z,5.70
2023-02-05T05:14:42.632Z,5.80
2023-02-05T05:15:13.543Z,5.40
2023-02-05T05:15:44.392Z,5.00
2023-02-05T05:16:15.335Z,5.40
2023-02-05T05:16:47.276Z,5.30
2023-02-05T05:17:17.169Z,5.70
2023-02-05T05:17:48.072Z,5.30
2023-02-05T05:18:18.999Z,5.50
2023-02-05T05:18:49.910Z,5.60
2023-02-05T05:19:19.813Z,5.40
2023-02-05T05:19:51.759Z,5.30
2023-02-05T05:20:22.693Z,5.50
2023-02-05T05:20:53.509Z,5.80
2023-02-05T05:21:24.403Z,5.30
2023-02-05T05:21:55.348Z,5.10
2023-02-05T05:22:57.055Z,5.40
2023-02-05T05:23:27.946Z,5.30
2023-02-05T05:23:58.936Z,5.30
2023-02-05T05:24:29.360Z,5.60
2023-02-05T05:25:00.275Z,5.40
2023-02-05T05:25:31.590Z,5.40
2023-02-05T05:26:02.144Z,5.40
2023-02-05T05:26:33.047Z,4.90
2023-02-05T05:27:03.958Z,5.10
2023-02-05T05:27:34.763Z,4.70
2023-02-05T05:28:05.713Z,4.90
2023-02-05T05:28:36.640Z,4.60
2023-02-05T05:29:07.551Z,5.40
2023-02-05T05:29:38.498Z,5.30
2023-02-05T05:30:09.413Z,5.60
2023-02-05T05:30:40.378Z,4.70
2023-02-05T05:31:11.446Z,5.10
2023-02-05T05:31:41.910Z,5.10
2023-02-05T05:32:12.856Z,5.10
2023-02-05T05:32:43.753Z,5.10
2023-02-05T05:33:14.695Z,5.00
2023-02-05T05:33:45.495Z,4.80
2023-02-05T05:34:15.100Z,4.60
2023-02-05T05:34:47.036Z,5.40
2023-02-05T05:35:17.968Z,5.10
2023-02-05T05:36:19.750Z,4.70
2023-02-05T05:36:49.346Z,4.70
2023-02-05T05:37:21.339Z,5.40
2023-02-05T05:37:52.229Z,5.10
2023-02-05T05:38:23.145Z,5.00
2023-02-05T05:38:54.060Z,4.60
2023-02-05T05:39:24.978Z,4.90
2023-02-05T05:39:55.897Z,5.40
2023-02-05T05:40:26.815Z,5.00
2023-02-05T05:40:57.737Z,4.90
2023-02-05T05:41:28.664Z,5.30
2023-02-05T05:41:58.271Z,5.60
2023-02-05T05:42:30.187Z,5.00
2023-02-05T05:43:01.097Z,5.00
2023-02-05T05:43:32.028Z,4.60
2023-02-05T05:44:01.549Z,5.10
2023-02-05T05:44:33.438Z,5.40
2023-02-05T05:45:03.046Z,4.90
2023-02-05T05:45:35.276Z,5.30
2023-02-05T05:46:05.940Z,4.90
2023-02-05T05:46:36.870Z,5.50
2023-02-05T05:47:07.673Z,4.90
2023-02-05T05:47:38.599Z,5.30
2023-02-05T05:48:09.528Z,5.10
2023-02-05T05:48:40.440Z,5.30
2023-02-05T05:49:11.328Z,5.30
2023-02-05T05:49:42.235Z,5.20
2023-02-05T05:50:11.756Z,5.40
2023-02-05T05:50:42.268Z,6.10
2023-02-05T05:51:12.889Z,5.30
2023-02-05T05:51:44.816Z,5.70
2023-02-05T05:52:14.383Z,5.60
2023-02-05T05:52:46.313Z,6.00
2023-02-05T05:53:17.217Z,5.70
2023-02-05T05:53:48.126Z,5.30
2023-02-05T05:54:19.021Z,5.80
2023-02-05T05:54:49.952Z,5.50
2023-02-05T05:55:20.889Z,5.30
2023-02-05T05:55:51.804Z,5.80
2023-02-05T05:56:21.428Z,5.60
2023-02-05T05:56:53.356Z,5.30
2023-02-05T05:57:24.291Z,5.40
2023-02-05T05:57:53.852Z,5.10
2023-02-05T05:58:25.745Z,5.20
2023-02-05T05:58:56.657Z,5.00
2023-02-05T05:59:26.257Z,5.20
2023-02-05T05:59:58.172Z,5.10
2023-02-05T06:00:29.083Z,4.50
2023-02-05T06:00:59.991Z,4.50
2023-02-05T06:01:30.920Z,4.60
2023-02-05T06:02:01.857Z,4.80
2023-02-05T06:02:32.678Z,4.20
2023-02-05T06:03:03.597Z,4.70
2023-02-05T06:03:34.406Z,4.30
2023-02-05T06:04:04.469Z,4.90
2023-02-05T06:04:35.917Z,4.50
2023-02-05T06:05:06.825Z,5.20
2023-02-05T06:05:36.660Z,4.90
2023-02-05T06:06:08.166Z,5.10
2023-02-05T06:06:39.099Z,5.00
2023-02-05T06:07:09.998Z,4.50
2023-02-05T06:07:40.802Z,5.00
2023-02-05T06:08:11.767Z,4.60
2023-02-05T06:08:42.663Z,4.40
2023-02-05T06:09:13.526Z,5.00
2023-02-05T06:09:44.422Z,5.00
2023-02-05T06:10:15.337Z,4.30
2023-02-05T06:10:44.946Z,4.30
2023-02-05T06:11:16.765Z,4.30
2023-02-05T06:11:47.660Z,4.70
2023-02-05T06:12:17.218Z,4.40
2023-02-05T06:12:49.064Z,5.20
2023-02-05T06:13:19.912Z,5.10
2023-02-05T06:13:49.513Z,5.20
2023-02-05T06:14:21.269Z,5.10
2023-02-05T06:14:52.079Z,4.70
2023-02-05T06:15:23.045Z,4.60
2023-02-05T06:15:54.000Z,5.00
2023-02-05T06:16:24.854Z,5.20
2023-02-05T06:16:55.692Z,5.10
2023-02-05T06:17:26.543Z,5.10
2023-02-05T06:17:57.379Z,5.20
2023-02-05T06:18:28.227Z,4.80
2023-02-05T06:18:59.181Z,5.30
2023-02-05T06:19:30.074Z,5.20
2023-02-05T06:19:59.628Z,4.90
2023-02-05T06:20:31.456Z,4.90
2023-02-05T06:21:01.050Z,6.00
2023-02-05T06:21:31.593Z,5.00
2023-02-05T06:22:02.224Z,5.30
2023-02-05T06:22:34.083Z,5.30
2023-02-05T06:23:05.053Z,5.00
2023-02-05T06:23:34.636Z,5.30
2023-02-05T06:24:06.485Z,5.70
2023-02-05T06:24:37.366Z,5.60
2023-02-05T06:25:08.228Z,5.30
2023-02-05T06:25:38.997Z,6.00
2023-02-05T06:26:09.852Z,5.20
2023-02-05T06:26:40.601Z,6.00
2023-02-05T06:27:11.492Z,6.20
2023-02-05T06:27:41.183Z,6.20
2023-02-05T06:28:13.128Z,5.10
2023-02-05T06:28:42.699Z,5.30
2023-02-05T06:29:13.671Z,4.90
2023-02-05T06:29:45.535Z,5.30
2023-02-05T06:30:16.413Z,5.30
2023-02-05T06:30:47.517Z,5.40
2023-02-05T06:31:18.260Z,5.50
2023-02-05T06:31:48.853Z,5.30
2023-02-05T06:32:19.255Z,5.50
2023-02-05T06:32:50.125Z,5.10
2023-02-05T06:33:20.999Z,5.60
2023-02-05T06:33:50.924Z,5.00
2023-02-05T06:34:22.755Z,5.30
2023-02-05T06:34:52.303Z,4.90
2023-02-05T06:35:24.169Z,5.00
2023-02-05T06:35:55.050Z,5.30
2023-02-05T06:36:24.603Z,4.80
2023-02-05T06:36:56.464Z,4.90
2023-02-05T06:37:45.471Z,5.40
2023-02-05T06:37:58.073Z,4.80
2023-02-05T06:38:27.631Z,5.00
2023-02-05T06:38:58.206Z,5.20
2023-02-05T06:39:29.172Z,4.80
2023-02-05T06:40:01.021Z,5.20
2023-02-05T06:40:31.761Z,5.40
2023-02-05T06:41:02.608Z,5.30
2023-02-05T06:41:32.151Z,5.50
2023-02-05T06:42:04.032Z,5.20
2023-02-05T06:42:34.919Z,5.30
2023-02-05T06:43:05.762Z,6.10
2023-02-05T06:43:36.654Z,5.60
2023-02-05T06:44:07.533Z,5.60
2023-02-05T06:45:07.895Z,5.10
2023-02-05T06:45:39.795Z,5.40
2023-02-05T06:46:09.804Z,4.80
2023-02-05T06:46:41.772Z,5.70
2023-02-05T06:47:12.632Z,5.70
2023-02-05T06:47:43.512Z,5.70
2023-02-05T06:48:14.343Z,5.00
2023-02-05T06:48:45.202Z,5.60
2023-02-05T06:49:14.771Z,5.60
2023-02-05T06:49:45.318Z,5.10
2023-02-05T06:50:15.873Z,5.50
2023-02-05T06:50:47.710Z,5.20
2023-02-05T06:51:17.324Z,5.10
2023-02-05T06:51:49.199Z,4.80
2023-02-05T06:52:20.094Z,5.30
2023-02-05T06:52:50.968Z,5.40
2023-02-05T06:53:21.879Z,5.20
2023-02-05T06:53:52.738Z,5.20
2023-02-05T06:54:23.673Z,5.10
2023-02-05T06:54:53.237Z,5.30
2023-02-05T06:55:25.102Z,5.30
2023-02-05T06:55:55.851Z,6.20
2023-02-05T06:56:26.706Z,5.50